Time;durP1;ratioP1;P1;durP2;ratioP2;P2;SDS_P1;SDS_P2;PMS_P1;PMS_P2;Temp;Humidity;BMP_temperature;BMP_pressure;BME280_temperature;BME280_humidity;BME280_pressure;Samples;Min_cycle;Max_cycle;Signal;HPM_P1;HPM_P2
2023/08/17 00:00:36;;;;;;;7.82;4.43;;;;;;;;;;5015110;28;20122;-69
2023/08/17 00:03:03;;;;;;;8.68;4.22;;;;;;;;;;5009797;28;20067;-69
2023/08/17 00:05:29;;;;;;;5.60;3.70;;;;;;;;;;5022058;28;20526;-70
2023/08/17 00:07:55;;;;;;;8.38;4.00;;;;;;;;;;5038961;28;20046;-70
2023/08/17 00:10:21;;;;;;;6.20;4.22;;;;;;;;;;5036177;27;20045;-70
2023/08/17 00:12:48;;;;;;;7.25;4.10;;;;;;;;;;5014152;28;20057;-70
2023/08/17 00:15:14;;;;;;;5.57;3.80;;;;;;;;;;5013234;28;20057;-70
2023/08/17 00:17:40;;;;;;;10.20;4.13;;;;;;;;;;5012451;28;20451;-70
2023/08/17 00:20:06;;;;;;;6.03;3.70;;;;;;;;;;5004607;28;20046;-70
2023/08/17 00:22:32;;;;;;;6.68;3.97;;;;;;;;;;5018484;27;20509;-70
2023/08/17 00:24:58;;;;;;;6.72;3.58;;;;;;;;;;5015946;28;20045;-70
2023/08/17 00:27:25;;;;;;;7.63;3.80;;;;;;;;;;5013737;28;20042;-70
2023/08/17 00:29:51;;;;;;;7.38;3.55;;;;;;;;;;5010671;28;20077;-70
2023/08/17 00:32:17;;;;;;;6.60;3.40;;;;;;;;;;4999709;28;20507;-70
2023/08/17 00:34:43;;;;;;;6.32;3.33;;;;;;;;;;5010450;28;20083;-70
2023/08/17 00:37:09;;;;;;;7.35;3.83;;;;;;;;;;4996931;28;20128;-69
2023/08/17 00:39:35;;;;;;;8.02;3.63;;;;;;;;;;5028544;28;20124;-70
2023/08/17 00:42:01;;;;;;;5.63;3.50;;;;;;;;;;5004391;28;20473;-70
2023/08/17 00:44:27;;;;;;;8.32;3.85;;;;;;;;;;4993456;28;20133;-71
2023/08/17 00:46:53;;;;;;;5.32;3.33;;;;;;;;;;5004886;28;20221;-70
2023/08/17 00:49:19;;;;;;;8.18;3.70;;;;;;;;;;5010188;28;20045;-70
2023/08/17 00:51:45;;;;;;;4.38;3.30;;;;;;;;;;4996127;28;20045;-70
2023/08/17 00:54:11;;;;;;;7.18;3.75;;;;;;;;;;4996887;28;20049;-70
2023/08/17 00:56:37;;;;;;;6.07;3.67;;;;;;;;;;4992456;28;20435;-70
2023/08/17 00:59:03;;;;;;;7.47;3.80;;;;;;;;;;5009919;28;20038;-70
2023/08/17 01:01:30;;;;;;;5.05;3.75;;;;;;;;;;4996179;28;20057;-70
2023/08/17 01:03:56;;;;;;;8.63;3.58;;;;;;;;;;5020095;28;20474;-70
2023/08/17 01:06:22;;;;;;;5.15;3.45;;;;;;;;;;5008931;28;20049;-70
2023/08/17 01:08:48;;;;;;;5.97;4.00;;;;;;;;;;5023658;28;20045;-70
2023/08/17 01:11:28;;;;;;;7.07;3.72;;;;;;;;;;4995314;28;20049;-70
2023/08/17 01:14:03;;;;;;;7.50;4.22;;;;;;;;;;4996629;28;20064;-70
2023/08/17 01:16:40;;;;;;;6.95;3.63;;;;;;;;;;5028579;28;20065;-70
2023/08/17 01:19:09;;;;;;;7.75;3.70;;;;;;;;;;4992953;28;20050;-70
2023/08/17 01:21:45;;;;;;;7.28;3.63;;;;;;;;;;5009236;28;20102;-70
2023/08/17 01:24:12;;;;;;;7.25;3.53;;;;;;;;;;5025107;28;20124;-70
2023/08/17 01:26:38;;;;;;;5.95;3.67;;;;;;;;;;5029815;28;20049;-70
2023/08/17 01:29:04;;;;;;;6.72;3.70;;;;;;;;;;5023593;28;20077;-70
2023/08/17 01:31:37;;;;;;;8.93;4.00;;;;;;;;;;5010452;28;20041;-70
2023/08/17 01:34:06;;;;;;;7.13;3.97;;;;;;;;;;4996610;28;20366;-70
2023/08/17 01:36:42;;;;;;;7.53;3.58;;;;;;;;;;5009156;28;20057;-70
2023/08/17 01:39:08;;;;;;;8.23;3.60;;;;;;;;;;5009301;28;20069;-70
2023/08/17 01:41:35;;;;;;;4.10;3.55;;;;;;;;;;5008681;28;20546;-70
2023/08/17 01:44:01;;;;;;;7.97;4.43;;;;;;;;;;5009664;28;20095;-70
2023/08/17 01:46:32;;;;;;;9.18;3.70;;;;;;;;;;5010675;28;20049;-70
2023/08/17 01:48:58;;;;;;;8.15;3.50;;;;;;;;;;5024373;28;20044;-70
2023/08/17 01:51:25;;;;;;;4.10;3.17;;;;;;;;;;5028037;28;20527;-70
2023/08/17 01:53:51;;;;;;;7.50;3.53;;;;;;;;;;5006573;28;20098;-70
2023/08/17 01:56:17;;;;;;;5.55;3.65;;;;;;;;;;5009151;28;20072;-70
2023/08/17 01:58:43;;;;;;;5.70;3.15;;;;;;;;;;5009129;28;20045;-70
2023/08/17 02:01:10;;;;;;;7.28;3.90;;;;;;;;;;5009264;28;20077;-70
2023/08/17 02:03:36;;;;;;;6.68;3.58;;;;;;;;;;5007662;28;20041;-70
2023/08/17 02:06:02;;;;;;;5.63;3.47;;;;;;;;;;5021221;28;20053;-70
2023/08/17 02:08:28;;;;;;;5.50;3.53;;;;;;;;;;4994568;28;20049;-69
2023/08/17 02:10:54;;;;;;;8.32;3.70;;;;;;;;;;5018725;28;20579;-70
2023/08/17 02:13:20;;;;;;;7.20;3.60;;;;;;;;;;5000858;28;20042;-69
2023/08/17 02:15:49;;;;;;;5.85;3.70;;;;;;;;;;4991488;28;20398;-70
2023/08/17 02:18:15;;;;;;;8.15;4.00;;;;;;;;;;5010139;28;20114;-70
2023/08/17 02:20:41;;;;;;;9.15;3.72;;;;;;;;;;5003207;28;20494;-70
2023/08/17 02:23:07;;;;;;;6.63;3.90;;;;;;;;;;5030926;28;20532;-70
2023/08/17 02:25:36;;;;;;;5.43;3.60;;;;;;;;;;5015085;28;20520;-69
2023/08/17 02:28:03;;;;;;;9.95;4.38;;;;;;;;;;5005615;28;20041;-70
2023/08/17 02:30:29;;;;;;;4.68;3.92;;;;;;;;;;5014609;28;20049;-70
2023/08/17 02:32:55;;;;;;;9.07;4.07;;;;;;;;;;5026651;28;20038;-70
2023/08/17 02:35:21;;;;;;;5.88;3.97;;;;;;;;;;5005005;28;20480;-70
2023/08/17 02:37:47;;;;;;;6.28;3.80;;;;;;;;;;5021026;28;20045;-70
2023/08/17 02:40:13;;;;;;;10.13;4.45;;;;;;;;;;5015653;28;20060;-70
2023/08/17 02:42:39;;;;;;;8.38;3.97;;;;;;;;;;5017418;28;20050;-70
2023/08/17 02:45:06;;;;;;;6.88;3.92;;;;;;;;;;5015548;28;20050;-70
2023/08/17 02:47:32;;;;;;;8.57;4.13;;;;;;;;;;5021366;28;20168;-69
2023/08/17 02:49:58;;;;;;;9.07;4.00;;;;;;;;;;5005870;28;20068;-70
2023/08/17 02:52:24;;;;;;;9.13;4.47;;;;;;;;;;5014937;28;20432;-69
2023/08/17 02:54:50;;;;;;;8.30;4.53;;;;;;;;;;5027242;28;20158;-69
2023/08/17 02:57:18;;;;;;;6.35;3.53;;;;;;;;;;5015171;28;20052;-69
2023/08/17 02:59:44;;;;;;;7.88;4.20;;;;;;;;;;5008185;28;20128;-69
2023/08/17 03:02:10;;;;;;;7.85;4.00;;;;;;;;;;5035345;28;20112;-69
2023/08/17 03:04:36;;;;;;;10.50;4.00;;;;;;;;;;5016867;28;20041;-69
2023/08/17 03:07:02;;;;;;;6.97;3.78;;;;;;;;;;5111367;27;20566;-70
2023/08/17 03:09:28;;;;;;;7.93;4.22;;;;;;;;;;5079600;27;20391;-69
2023/08/17 03:11:54;;;;;;;7.90;4.18;;;;;;;;;;5032579;28;20102;-69
2023/08/17 03:14:20;;;;;;;8.57;4.07;;;;;;;;;;5028847;28;20045;-69
2023/08/17 03:16:46;;;;;;;7.03;4.15;;;;;;;;;;5034007;28;20481;-69
2023/08/17 03:19:12;;;;;;;8.40;4.60;;;;;;;;;;5016763;28;20045;-69
2023/08/17 03:21:39;;;;;;;8.38;5.15;;;;;;;;;;4996760;28;20450;-69
2023/08/17 03:24:05;;;;;;;8.32;4.18;;;;;;;;;;5018909;28;20046;-69
2023/08/17 03:26:34;;;;;;;7.35;4.45;;;;;;;;;;5014781;28;20052;-69
2023/08/17 03:29:00;;;;;;;7.63;4.55;;;;;;;;;;5014309;28;20523;-69
2023/08/17 03:31:26;;;;;;;8.07;4.40;;;;;;;;;;5017517;28;20542;-70
2023/08/17 03:33:52;;;;;;;7.43;4.10;;;;;;;;;;5031278;28;20085;-69
2023/08/17 03:36:18;;;;;;;6.80;4.38;;;;;;;;;;5015366;28;20129;-69
2023/08/17 03:38:44;;;;;;;6.65;4.22;;;;;;;;;;5017059;28;20037;-69
2023/08/17 03:41:10;;;;;;;9.25;4.75;;;;;;;;;;5007761;28;20290;-69
2023/08/17 03:43:36;;;;;;;7.20;4.30;;;;;;;;;;5021700;28;20504;-69
2023/08/17 03:46:02;;;;;;;7.55;4.03;;;;;;;;;;5030491;28;20053;-69
2023/08/17 03:48:28;;;;;;;5.95;3.78;;;;;;;;;;5014886;28;20127;-69
2023/08/17 03:50:55;;;;;;;8.77;4.20;;;;;;;;;;5020680;28;20046;-69
2023/08/17 03:53:21;;;;;;;6.97;4.88;;;;;;;;;;5004401;28;20489;-69
2023/08/17 03:55:50;;;;;;;8.38;4.60;;;;;;;;;;4992946;28;20521;-69
2023/08/17 03:58:18;;;;;;;9.50;4.72;;;;;;;;;;5010285;28;20064;-69
2023/08/17 04:00:49;;;;;;;8.43;4.60;;;;;;;;;;5019650;28;20069;-69
2023/08/17 04:03:15;;;;;;;9.02;4.55;;;;;;;;;;5013635;28;20061;-69
2023/08/17 04:05:41;;;;;;;6.15;4.40;;;;;;;;;;5022244;28;20049;-69
2023/08/17 04:08:07;;;;;;;8.73;4.70;;;;;;;;;;5011702;28;20050;-69
2023/08/17 04:10:33;;;;;;;7.45;4.70;;;;;;;;;;4999024;28;20132;-69
2023/08/17 04:12:59;;;;;;;11.18;4.78;;;;;;;;;;5012949;28;20151;-69
2023/08/17 04:15:25;;;;;;;7.10;4.63;;;;;;;;;;5013261;28;20046;-70
2023/08/17 04:17:51;;;;;;;5.78;4.65;;;;;;;;;;5028956;28;20042;-69
2023/08/17 04:20:21;;;;;;;8.90;5.20;;;;;;;;;;5013082;28;20454;-69
2023/08/17 04:22:47;;;;;;;9.20;5.00;;;;;;;;;;5061214;27;20489;-69
2023/08/17 04:25:13;;;;;;;6.85;4.65;;;;;;;;;;5133634;27;20049;-68
2023/08/17 04:27:40;;;;;;;7.63;4.93;;;;;;;;;;5057514;27;20046;-69
2023/08/17 04:30:06;;;;;;;7.15;4.82;;;;;;;;;;5014592;28;20064;-69
2023/08/17 04:32:32;;;;;;;6.88;4.88;;;;;;;;;;5012576;28;20053;-69
2023/08/17 04:34:58;;;;;;;8.30;4.60;;;;;;;;;;5023609;28;20049;-69
2023/08/17 04:37:24;;;;;;;10.07;5.10;;;;;;;;;;5013730;28;20048;-69
2023/08/17 04:39:51;;;;;;;7.53;5.20;;;;;;;;;;5012589;28;20060;-69
2023/08/17 04:42:17;;;;;;;8.40;5.53;;;;;;;;;;5026015;28;20490;-69
2023/08/17 04:44:43;;;;;;;6.60;4.30;;;;;;;;;;5027993;28;20041;-69
2023/08/17 04:47:10;;;;;;;7.40;5.10;;;;;;;;;;5012296;28;20114;-69
2023/08/17 04:49:36;;;;;;;6.43;4.97;;;;;;;;;;5026347;28;20037;-70
2023/08/17 04:52:02;;;;;;;10.07;5.10;;;;;;;;;;5027598;28;20073;-69
2023/08/17 04:54:28;;;;;;;7.15;4.72;;;;;;;;;;5024908;28;20537;-69
2023/08/17 04:56:54;;;;;;;9.10;4.60;;;;;;;;;;5024305;28;20046;-69
2023/08/17 04:59:20;;;;;;;7.30;4.95;;;;;;;;;;5009422;28;20405;-69
2023/08/17 05:01:46;;;;;;;10.05;4.63;;;;;;;;;;5011794;28;20503;-70
2023/08/17 05:04:12;;;;;;;9.00;4.75;;;;;;;;;;5025654;28;20056;-69
2023/08/17 05:06:38;;;;;;;6.57;4.75;;;;;;;;;;5005199;28;20050;-69
2023/08/17 05:09:05;;;;;;;9.48;4.57;;;;;;;;;;5016703;28;20041;-69
2023/08/17 05:11:31;;;;;;;10.95;4.50;;;;;;;;;;5024259;28;20085;-69
2023/08/17 05:13:57;;;;;;;8.13;4.35;;;;;;;;;;5011457;28;20046;-70
2023/08/17 05:16:23;;;;;;;8.60;4.18;;;;;;;;;;5026581;28;20098;-69
2023/08/17 05:18:49;;;;;;;5.70;3.75;;;;;;;;;;5013323;28;20406;-69
2023/08/17 05:21:15;;;;;;;6.32;4.00;;;;;;;;;;5015604;28;20404;-70
2023/08/17 05:23:41;;;;;;;7.07;3.85;;;;;;;;;;4999086;28;20141;-69
2023/08/17 05:26:08;;;;;;;5.88;3.85;;;;;;;;;;5025860;28;20124;-70
2023/08/17 05:28:34;;;;;;;8.90;3.78;;;;;;;;;;5015491;28;20400;-70
2023/08/17 05:31:07;;;;;;;6.88;3.72;;;;;;;;;;5008528;28;20072;-70
2023/08/17 05:33:33;;;;;;;8.65;3.70;;;;;;;;;;4999480;28;20310;-70
2023/08/17 05:35:59;;;;;;;7.20;3.50;;;;;;;;;;5011765;28;20050;-69
2023/08/17 05:38:25;;;;;;;5.03;3.33;;;;;;;;;;5009671;28;20046;-69
2023/08/17 05:40:57;;;;;;;9.45;3.45;;;;;;;;;;5013131;28;20044;-69
2023/08/17 05:43:24;;;;;;;6.43;3.40;;;;;;;;;;5004309;28;20049;-69
2023/08/17 05:45:50;;;;;;;5.43;3.20;;;;;;;;;;5013204;28;20086;-69
2023/08/17 05:48:16;;;;;;;6.85;2.97;;;;;;;;;;5022205;28;20061;-69
2023/08/17 05:50:42;;;;;;;10.90;3.50;;;;;;;;;;5014411;28;20085;-68
2023/08/17 05:53:08;;;;;;;4.50;3.00;;;;;;;;;;4996420;28;20081;-69
2023/08/17 05:55:34;;;;;;;4.97;2.70;;;;;;;;;;5038711;27;20045;-69
2023/08/17 05:58:01;;;;;;;5.00;2.80;;;;;;;;;;5026597;28;20087;-69
2023/08/17 06:00:27;;;;;;;4.68;2.65;;;;;;;;;;5079900;28;20081;-68
2023/08/17 06:02:55;;;;;;;5.55;3.05;;;;;;;;;;5007115;28;20045;-69
2023/08/17 06:05:26;;;;;;;3.15;2.70;;;;;;;;;;5017383;28;20526;-69
2023/08/17 06:07:52;;;;;;;4.88;2.38;;;;;;;;;;5018202;28;20524;-69
2023/08/17 06:10:18;;;;;;;6.15;2.75;;;;;;;;;;5025665;28;20037;-69
2023/08/17 06:12:44;;;;;;;6.00;2.90;;;;;;;;;;5024028;27;20038;-69
2023/08/17 06:15:10;;;;;;;3.67;2.88;;;;;;;;;;5089959;27;20473;-69
2023/08/17 06:17:36;;;;;;;3.58;2.67;;;;;;;;;;5073647;28;20063;-69
2023/08/17 06:20:03;;;;;;;3.30;2.67;;;;;;;;;;5084726;28;20049;-70
2023/08/17 06:22:29;;;;;;;3.97;2.50;;;;;;;;;;5044870;28;20096;-68
2023/08/17 06:24:55;;;;;;;5.88;2.90;;;;;;;;;;5040122;28;20041;-69
2023/08/17 06:27:21;;;;;;;4.10;2.70;;;;;;;;;;4998059;28;20119;-69
2023/08/17 06:29:47;;;;;;;5.22;3.00;;;;;;;;;;4990025;28;20074;-69
2023/08/17 06:32:13;;;;;;;6.13;2.60;;;;;;;;;;5014328;28;20042;-68
2023/08/17 06:34:39;;;;;;;5.00;3.10;;;;;;;;;;5021292;28;20597;-68
2023/08/17 06:37:05;;;;;;;4.05;2.70;;;;;;;;;;4996310;28;20052;-69
2023/08/17 06:39:31;;;;;;;6.28;2.80;;;;;;;;;;5028331;28;20049;-68
2023/08/17 06:41:57;;;;;;;7.35;3.28;;;;;;;;;;5009076;28;20433;-69
2023/08/17 06:44:23;;;;;;;4.72;2.35;;;;;;;;;;5066056;28;20047;-69
2023/08/17 06:46:49;;;;;;;5.15;2.20;;;;;;;;;;5008807;28;20428;-69
2023/08/17 06:49:15;;;;;;;2.88;2.20;;;;;;;;;;5018077;28;20050;-69
2023/08/17 06:51:42;;;;;;;2.78;2.20;;;;;;;;;;5008485;28;20052;-69
2023/08/17 06:54:09;;;;;;;3.80;2.40;;;;;;;;;;5024386;28;20038;-69
2023/08/17 06:56:35;;;;;;;4.95;2.20;;;;;;;;;;5066178;28;20107;-69
2023/08/17 06:59:02;;;;;;;4.68;2.30;;;;;;;;;;5028955;28;20033;-69
2023/08/17 07:01:28;;;;;;;3.28;2.38;;;;;;;;;;5061759;28;20565;-69
2023/08/17 07:03:55;;;;;;;3.70;2.30;;;;;;;;;;5028312;28;20073;-69
2023/08/17 07:06:21;;;;;;;4.75;2.30;;;;;;;;;;5050828;27;20063;-68
2023/08/17 07:08:47;;;;;;;5.95;2.30;;;;;;;;;;5134523;27;20103;-69
2023/08/17 07:11:13;;;;;;;3.75;2.58;;;;;;;;;;5074137;27;20069;-68
2023/08/17 07:13:39;;;;;;;2.40;2.20;;;;;;;;;;5093623;27;20064;-69
2023/08/17 07:16:05;;;;;;;5.38;2.40;;;;;;;;;;5010542;28;20397;-69
2023/08/17 07:18:31;;;;;;;5.50;2.45;;;;;;;;;;4999561;28;20046;-69
2023/08/17 07:20:57;;;;;;;3.97;2.20;;;;;;;;;;5003106;28;20105;-70
2023/08/17 07:23:23;;;;;;;2.03;1.80;;;;;;;;;;5031485;28;20053;-70
2023/08/17 07:25:49;;;;;;;5.20;2.17;;;;;;;;;;5011334;28;20136;-69
2023/08/17 07:28:16;;;;;;;5.20;2.50;;;;;;;;;;5003449;28;20373;-70
2023/08/17 07:30:42;;;;;;;5.55;2.20;;;;;;;;;;5060131;27;20050;-71
2023/08/17 07:33:08;;;;;;;4.40;2.40;;;;;;;;;;5102172;27;20167;-71
2023/08/17 07:35:34;;;;;;;3.60;2.15;;;;;;;;;;5018090;28;20045;-70
2023/08/17 07:38:00;;;;;;;4.43;2.17;;;;;;;;;;5031828;28;20125;-71
2023/08/17 07:40:26;;;;;;;4.80;2.03;;;;;;;;;;5011492;28;20098;-71
2023/08/17 07:42:52;;;;;;;5.03;2.35;;;;;;;;;;5031065;28;20052;-71
2023/08/17 07:45:18;;;;;;;5.78;2.20;;;;;;;;;;5030158;28;20518;-71
2023/08/17 07:47:44;;;;;;;4.72;2.42;;;;;;;;;;5010349;28;20097;-70
2023/08/17 07:50:11;;;;;;;4.90;2.30;;;;;;;;;;5030638;28;20511;-70
2023/08/17 07:52:37;;;;;;;6.07;2.47;;;;;;;;;;5031067;28;20049;-70
2023/08/17 07:55:03;;;;;;;3.47;2.13;;;;;;;;;;5011665;28;20484;-70
2023/08/17 07:57:29;;;;;;;4.00;2.10;;;;;;;;;;5031335;28;20459;-69
2023/08/17 07:59:55;;;;;;;5.20;2.10;;;;;;;;;;5026699;28;20053;-70
2023/08/17 08:02:21;;;;;;;2.88;2.05;;;;;;;;;;5029632;28;20049;-70
2023/08/17 08:04:47;;;;;;;5.95;2.30;;;;;;;;;;5030704;28;20385;-70
2023/08/17 08:07:13;;;;;;;4.50;2.10;;;;;;;;;;5030608;28;20152;-70
2023/08/17 08:09:40;;;;;;;4.97;2.33;;;;;;;;;;5026211;28;20045;-70
2023/08/17 08:12:07;;;;;;;4.80;2.47;;;;;;;;;;5030703;28;20050;-70
2023/08/17 08:14:34;;;;;;;4.63;1.90;;;;;;;;;;5030280;28;20045;-70
2023/08/17 08:17:00;;;;;;;3.88;2.20;;;;;;;;;;5029094;28;20127;-70
2023/08/17 08:19:26;;;;;;;5.22;2.35;;;;;;;;;;5029852;28;20508;-70
2023/08/17 08:21:52;;;;;;;9.57;2.30;;;;;;;;;;5009299;28;20060;-70
2023/08/17 08:24:18;;;;;;;3.45;1.95;;;;;;;;;;5010487;28;20125;-70
2023/08/17 08:26:44;;;;;;;6.82;2.10;;;;;;;;;;4992731;28;20481;-70
2023/08/17 08:29:10;;;;;;;5.82;2.17;;;;;;;;;;4993340;28;20064;-70
2023/08/17 08:31:36;;;;;;;3.53;2.10;;;;;;;;;;5029681;28;20438;-70
2023/08/17 08:34:02;;;;;;;4.20;2.08;;;;;;;;;;5012791;28;20091;-70
2023/08/17 08:36:28;;;;;;;7.90;2.17;;;;;;;;;;5029511;28;20206;-70
2023/08/17 08:38:54;;;;;;;3.67;2.10;;;;;;;;;;5013870;28;20054;-70
2023/08/17 08:41:20;;;;;;;6.28;2.28;;;;;;;;;;4993333;28;20137;-70
2023/08/17 08:43:46;;;;;;;3.72;2.13;;;;;;;;;;5011686;28;20477;-70
2023/08/17 08:46:13;;;;;;;4.90;2.15;;;;;;;;;;5028464;28;20058;-70
2023/08/17 08:48:40;;;;;;;5.38;2.05;;;;;;;;;;5008939;28;20378;-70
2023/08/17 08:51:09;;;;;;;1.75;1.60;;;;;;;;;;5029126;28;20057;-70
2023/08/17 08:53:38;;;;;;;4.47;2.00;;;;;;;;;;5024395;28;20046;-70
2023/08/17 08:56:05;;;;;;;3.40;2.13;;;;;;;;;;5030146;28;20389;-70
2023/08/17 08:58:32;;;;;;;3.08;1.90;;;;;;;;;;5010666;28;20053;-70
2023/08/17 09:00:58;;;;;;;6.03;2.08;;;;;;;;;;5010137;28;20114;-70
2023/08/17 09:03:25;;;;;;;3.80;1.83;;;;;;;;;;5012467;28;20057;-70
2023/08/17 09:05:51;;;;;;;2.42;1.90;;;;;;;;;;5028946;28;20049;-70
2023/08/17 09:08:25;;;;;;;3.75;2.10;;;;;;;;;;5030333;28;20053;-70
2023/08/17 09:10:51;;;;;;;3.15;2.05;;;;;;;;;;5029627;28;20081;-70
2023/08/17 09:13:17;;;;;;;3.97;2.17;;;;;;;;;;5027164;28;20431;-70
2023/08/17 09:15:43;;;;;;;4.18;2.13;;;;;;;;;;5027313;28;20092;-70
2023/08/17 09:18:09;;;;;;;7.80;2.38;;;;;;;;;;5028331;28;20048;-70
2023/08/17 09:20:39;;;;;;;2.42;2.08;;;;;;;;;;4994954;28;20073;-70
2023/08/17 09:23:12;;;;;;;5.15;1.90;;;;;;;;;;5009983;28;20042;-70
2023/08/17 09:25:38;;;;;;;5.68;2.40;;;;;;;;;;5009300;28;20125;-70
2023/08/17 09:28:12;;;;;;;3.35;2.22;;;;;;;;;;4998873;28;20385;-70
2023/08/17 09:30:59;;;;;;;4.07;2.00;;;;;;;;;;5009635;28;20382;-70
2023/08/17 09:33:26;;;;;;;3.28;2.03;;;;;;;;;;5009224;28;20058;-70
2023/08/17 09:35:52;;;;;;;4.75;2.22;;;;;;;;;;5025667;28;20046;-70
2023/08/17 09:38:19;;;;;;;9.35;2.95;;;;;;;;;;5014980;28;20451;-70
2023/08/17 09:40:45;;;;;;;2.78;2.30;;;;;;;;;;5028203;28;20544;-70
2023/08/17 09:43:12;;;;;;;4.38;2.47;;;;;;;;;;5005150;28;20088;-70
2023/08/17 09:45:39;;;;;;;5.13;2.10;;;;;;;;;;5027800;28;20057;-70
2023/08/17 09:48:05;;;;;;;5.15;2.25;;;;;;;;;;5028431;28;20515;-70
2023/08/17 09:50:32;;;;;;;4.90;2.13;;;;;;;;;;5028288;28;20052;-70
2023/08/17 09:52:58;;;;;;;6.25;2.20;;;;;;;;;;5011960;28;20536;-70
2023/08/17 09:55:24;;;;;;;4.30;1.90;;;;;;;;;;5049568;28;20079;-69
2023/08/17 09:57:51;;;;;;;3.20;2.10;;;;;;;;;;5132904;27;20050;-70
2023/08/17 10:00:18;;;;;;;4.78;1.90;;;;;;;;;;5034781;27;20068;-69
2023/08/17 10:02:53;;;;;;;5.97;2.28;;;;;;;;;;5013437;28;20037;-70
2023/08/17 10:05:20;;;;;;;2.70;1.80;;;;;;;;;;5009064;28;20061;-70
2023/08/17 10:07:54;;;;;;;3.22;1.80;;;;;;;;;;5008958;28;20054;-69
2023/08/17 10:10:26;;;;;;;4.68;2.05;;;;;;;;;;4991913;28;20041;-70
2023/08/17 10:13:07;;;;;;;3.70;2.10;;;;;;;;;;5021047;28;20045;-70
2023/08/17 10:15:35;;;;;;;4.80;2.40;;;;;;;;;;5039542;28;20045;-70
2023/08/17 10:18:06;;;;;;;4.45;2.10;;;;;;;;;;5088665;28;20047;-70
2023/08/17 10:20:34;;;;;;;4.43;2.17;;;;;;;;;;5070578;28;20049;-71
2023/08/17 10:23:15;;;;;;;3.28;2.30;;;;;;;;;;5019649;28;20042;-70
2023/08/17 10:25:42;;;;;;;3.70;2.00;;;;;;;;;;5028771;28;20046;-70
2023/08/17 10:28:09;;;;;;;3.88;2.30;;;;;;;;;;5056723;28;20039;-70
2023/08/17 10:30:36;;;;;;;6.88;2.42;;;;;;;;;;5054294;28;20050;-70
2023/08/17 10:33:03;;;;;;;3.00;1.92;;;;;;;;;;4994834;28;20132;-71
2023/08/17 10:35:30;;;;;;;5.45;2.00;;;;;;;;;;5009320;28;20050;-70
2023/08/17 10:37:56;;;;;;;4.68;2.33;;;;;;;;;;4999186;28;20396;-70
2023/08/17 10:40:28;;;;;;;4.47;2.10;;;;;;;;;;5053536;27;20049;-70
2023/08/17 10:42:57;;;;;;;4.65;2.00;;;;;;;;;;5086311;27;20153;-70
2023/08/17 10:45:30;;;;;;;3.67;2.10;;;;;;;;;;5001071;28;20050;-70
2023/08/17 10:47:56;;;;;;;;;;;;;;;;;;5013693;28;20508;-71
2023/08/17 10:50:23;;;;;;;2.95;1.92;;;;;;;;;;5024237;28;19925;-70
2023/08/17 10:52:50;;;;;;;4.68;2.90;;;;;;;;;;5024745;28;20045;-70
2023/08/17 10:55:16;;;;;;;3.58;1.98;;;;;;;;;;5020393;27;20042;-70
2023/08/17 10:57:45;;;;;;;6.85;2.15;;;;;;;;;;5041318;27;20069;-71
2023/08/17 11:00:26;;;;;;;3.92;2.28;;;;;;;;;;5031520;28;20503;-71
2023/08/17 11:02:54;;;;;;;6.28;2.53;;;;;;;;;;5023894;28;20050;-70
2023/08/17 11:05:37;;;;;;;3.53;2.00;;;;;;;;;;5020136;28;20049;-71
2023/08/17 11:08:03;;;;;;;5.50;2.33;;;;;;;;;;5035012;27;20048;-70
2023/08/17 11:10:29;;;;;;;5.18;1.90;;;;;;;;;;5026956;28;20072;-70
2023/08/17 11:12:59;;;;;;;5.00;2.13;;;;;;;;;;4993798;28;20046;-70
2023/08/17 11:15:38;;;;;;;3.83;2.15;;;;;;;;;;5017600;28;20053;-70
2023/08/17 11:18:07;;;;;;;5.43;2.15;;;;;;;;;;5030862;28;20046;-70
2023/08/17 11:20:34;;;;;;;3.47;2.17;;;;;;;;;;5029528;28;20048;-70
2023/08/17 11:23:02;;;;;;;4.50;2.25;;;;;;;;;;5012315;28;20077;-70
2023/08/17 11:25:28;;;;;;;8.90;2.55;;;;;;;;;;5011223;28;20050;-70
2023/08/17 11:27:55;;;;;;;4.50;2.40;;;;;;;;;;5012229;28;20390;-70
2023/08/17 11:30:22;;;;;;;4.68;2.20;;;;;;;;;;5028621;28;20049;-71
2023/08/17 11:32:49;;;;;;;4.82;2.08;;;;;;;;;;5077950;27;20071;-71
2023/08/17 11:35:15;;;;;;;8.65;2.65;;;;;;;;;;5013599;28;20056;-71
2023/08/17 11:37:41;;;;;;;4.20;2.20;;;;;;;;;;5031164;28;20556;-71
2023/08/17 11:40:09;;;;;;;3.72;2.20;;;;;;;;;;5029673;28;20052;-71
2023/08/17 11:42:36;;;;;;;4.20;2.42;;;;;;;;;;5076803;27;20043;-71
2023/08/17 11:45:02;;;;;;;5.95;2.60;;;;;;;;;;4995232;28;20060;-71
2023/08/17 11:47:29;;;;;;;7.07;2.63;;;;;;;;;;4998961;28;20113;-71
2023/08/17 11:50:00;;;;;;;5.70;2.35;;;;;;;;;;5012739;28;20136;-71
2023/08/17 11:52:32;;;;;;;2.90;2.55;;;;;;;;;;5030821;28;20049;-71
2023/08/17 11:54:58;;;;;;;3.65;2.33;;;;;;;;;;5074540;27;20049;-71
2023/08/17 11:57:25;;;;;;;4.70;2.42;;;;;;;;;;5072611;27;20554;-71
2023/08/17 11:59:55;;;;;;;6.28;2.67;;;;;;;;;;5043420;28;20054;-71
2023/08/17 12:02:22;;;;;;;3.92;2.35;;;;;;;;;;5089402;27;20483;-70
2023/08/17 12:04:48;;;;;;;4.47;2.30;;;;;;;;;;5005691;28;20050;-70
2023/08/17 12:07:16;;;;;;;6.70;2.58;;;;;;;;;;4997745;28;20053;-70
2023/08/17 12:09:42;;;;;;;6.15;2.33;;;;;;;;;;5016541;28;20034;-70
2023/08/17 12:12:10;;;;;;;4.28;2.42;;;;;;;;;;5000517;28;20072;-70
2023/08/17 12:14:36;;;;;;;4.75;2.40;;;;;;;;;;5028952;28;20041;-71
2023/08/17 12:17:02;;;;;;;6.18;2.42;;;;;;;;;;5011211;28;20085;-71
2023/08/17 12:19:29;;;;;;;4.93;2.50;;;;;;;;;;5021632;28;20049;-71
2023/08/17 12:21:57;;;;;;;4.00;2.50;;;;;;;;;;5009176;28;20490;-71
2023/08/17 12:24:26;;;;;;;7.07;2.60;;;;;;;;;;5011011;28;20046;-71
2023/08/17 12:26:53;;;;;;;7.95;2.90;;;;;;;;;;5007098;28;20053;-70
2023/08/17 12:29:19;;;;;;;5.13;2.30;;;;;;;;;;5016343;28;20049;-70
2023/08/17 12:31:45;;;;;;;6.55;2.40;;;;;;;;;;5027811;27;20484;-70
2023/08/17 12:34:11;;;;;;;4.53;2.47;;;;;;;;;;5071483;28;20489;-70
2023/08/17 12:36:38;;;;;;;4.72;2.40;;;;;;;;;;5001937;28;20045;-70
2023/08/17 12:39:04;;;;;;;3.88;2.33;;;;;;;;;;5012989;28;20041;-71
2023/08/17 12:41:30;;;;;;;4.32;2.40;;;;;;;;;;5018079;28;20142;-71
2023/08/17 12:43:59;;;;;;;6.18;2.47;;;;;;;;;;5013991;28;20485;-71
2023/08/17 12:46:25;;;;;;;6.03;2.40;;;;;;;;;;5029801;28;20397;-71
2023/08/17 12:48:51;;;;;;;5.80;2.97;;;;;;;;;;5026075;28;20114;-71
2023/08/17 12:51:17;;;;;;;5.93;2.70;;;;;;;;;;5005477;28;20061;-70
2023/08/17 12:53:43;;;;;;;5.70;2.60;;;;;;;;;;5010593;28;20489;-70
2023/08/17 12:56:09;;;;;;;7.88;2.67;;;;;;;;;;5010982;28;20119;-70
2023/08/17 12:58:35;;;;;;;5.07;2.58;;;;;;;;;;5009826;28;20049;-70
2023/08/17 13:01:02;;;;;;;5.57;2.30;;;;;;;;;;5020331;28;20045;-70
2023/08/17 13:03:28;;;;;;;7.57;2.95;;;;;;;;;;5028839;28;20053;-70
2023/08/17 13:05:55;;;;;;;5.50;2.50;;;;;;;;;;5028478;28;20064;-69
2023/08/17 13:08:21;;;;;;;4.18;2.65;;;;;;;;;;5007552;28;20535;-70
2023/08/17 13:10:47;;;;;;;5.57;2.65;;;;;;;;;;5025363;28;20682;-70
2023/08/17 13:13:13;;;;;;;6.43;2.70;;;;;;;;;;5030258;28;20129;-70
2023/08/17 13:15:39;;;;;;;5.45;2.80;;;;;;;;;;5012003;28;20409;-70
2023/08/17 13:18:05;;;;;;;3.72;2.33;;;;;;;;;;5028114;28;20098;-70
2023/08/17 13:20:31;;;;;;;5.38;2.65;;;;;;;;;;5029367;28;20404;-71
2023/08/17 13:22:57;;;;;;;5.13;2.72;;;;;;;;;;5005654;28;20104;-70
2023/08/17 13:25:23;;;;;;;4.75;2.70;;;;;;;;;;4992560;28;20504;-70
2023/08/17 13:27:49;;;;;;;4.50;2.90;;;;;;;;;;5017985;28;20065;-70
2023/08/17 13:30:15;;;;;;;6.03;2.42;;;;;;;;;;5027530;28;20053;-70
2023/08/17 13:32:42;;;;;;;5.95;2.85;;;;;;;;;;5009565;28;20151;-70
2023/08/17 13:35:08;;;;;;;3.17;2.78;;;;;;;;;;5015148;28;20547;-70
2023/08/17 13:37:37;;;;;;;7.68;3.42;;;;;;;;;;5027345;27;20050;-70
2023/08/17 13:40:03;;;;;;;7.75;3.05;;;;;;;;;;5000021;28;20082;-70
2023/08/17 13:42:29;;;;;;;5.38;2.90;;;;;;;;;;5010883;28;20511;-71
2023/08/17 13:44:55;;;;;;;4.35;2.78;;;;;;;;;;5018566;28;20484;-71
2023/08/17 13:47:21;;;;;;;4.63;2.55;;;;;;;;;;5017702;28;20045;-71
2023/08/17 13:49:47;;;;;;;6.47;2.95;;;;;;;;;;5002904;28;20053;-71
2023/08/17 13:52:13;;;;;;;5.15;2.85;;;;;;;;;;4992258;28;20075;-70
2023/08/17 13:54:40;;;;;;;7.43;3.22;;;;;;;;;;5023549;28;20049;-71
2023/08/17 13:57:06;;;;;;;6.15;2.90;;;;;;;;;;5011500;28;20061;-71
2023/08/17 13:59:32;;;;;;;5.07;2.83;;;;;;;;;;5027700;28;20453;-71
2023/08/17 14:01:58;;;;;;;7.38;3.03;;;;;;;;;;5013895;28;20053;-71
2023/08/17 14:04:24;;;;;;;5.22;3.00;;;;;;;;;;5016339;28;20087;-71
2023/08/17 14:06:52;;;;;;;5.13;2.50;;;;;;;;;;5015306;28;20497;-71
2023/08/17 14:09:18;;;;;;;5.10;2.70;;;;;;;;;;5005870;28;20062;-70
2023/08/17 14:11:44;;;;;;;4.55;2.67;;;;;;;;;;5006489;28;20090;-71
2023/08/17 14:14:10;;;;;;;7.28;3.10;;;;;;;;;;5005855;28;20055;-70
2023/08/17 14:16:36;;;;;;;8.70;3.42;;;;;;;;;;5015433;28;20051;-70
2023/08/17 14:19:02;;;;;;;5.60;2.72;;;;;;;;;;5011042;28;20544;-70
2023/08/17 14:21:28;;;;;;;4.20;2.53;;;;;;;;;;5010612;28;20062;-70
2023/08/17 14:23:55;;;;;;;4.53;2.45;;;;;;;;;;5026872;28;20042;-71
2023/08/17 14:26:21;;;;;;;7.18;3.10;;;;;;;;;;4997584;28;20473;-71
2023/08/17 14:28:47;;;;;;;5.80;2.40;;;;;;;;;;5131692;28;20031;-70
2023/08/17 14:31:17;;;;;;;5.18;2.65;;;;;;;;;;5090070;28;20509;-71
2023/08/17 14:33:46;;;;;;;6.35;2.70;;;;;;;;;;5010030;28;20053;-71
2023/08/17 14:36:12;;;;;;;7.72;2.45;;;;;;;;;;5010134;28;20401;-71
2023/08/17 14:38:38;;;;;;;8.27;2.70;;;;;;;;;;5010920;28;20068;-71
2023/08/17 14:41:06;;;;;;;6.85;2.65;;;;;;;;;;5011432;28;20136;-70